createdAt,value
2023-01-01T00:00:13.472Z,77.51
2023-01-01T00:01:12.380Z,77.78
2023-01-01T00:02:02.387Z,77.98
2023-01-01T00:02:38.219Z,78.20
2023-01-01T00:03:11.656Z,78.49
2023-01-01T00:03:49.954Z,78.47
2023-01-01T00:04:23.505Z,78.33
2023-01-01T00:04:57.007Z,78.17
2023-01-01T00:05:30.412Z,78.34
2023-01-01T00:06:08.974Z,78.18
2023-01-01T00:06:44.015Z,77.93
2023-01-01T00:07:17.431Z,77.76
2023-01-01T00:07:50.982Z,77.69
2023-01-01T00:08:24.416Z,77.59
2023-01-01T00:09:16.539Z,77.50
2023-01-01T00:10:08.577Z,77.52
2023-01-01T00:10:42.291Z,77.26
2023-01-01T00:11:15.979Z,77.23
2023-01-01T00:11:49.469Z,76.89
2023-01-01T00:12:22.779Z,76.89
2023-01-01T00:13:00.333Z,76.71
2023-01-01T00:13:35.582Z,76.79
2023-01-01T00:14:12.459Z,76.40
2023-01-01T00:14:46.405Z,76.36
2023-01-01T00:15:22.228Z,76.29
2023-01-01T00:15:55.839Z,76.18
2023-01-01T00:16:29.809Z,75.99
2023-01-01T00:17:03.338Z,76.05
2023-01-01T00:17:36.987Z,75.75
2023-01-01T00:18:10.589Z,75.91
2023-01-01T00:18:43.922Z,75.77
2023-01-01T00:19:17.717Z,75.47
2023-01-01T00:19:51.139Z,75.25
2023-01-01T00:20:28.702Z,75.01
2023-01-01T00:21:13.737Z,74.57
2023-01-01T00:21:47.493Z,74.47
2023-01-01T00:22:53.444Z,74.38
2023-01-01T00:23:14.806Z,73.97
2023-01-01T00:23:48.415Z,73.49
2023-01-01T00:24:22.053Z,73.76
2023-01-01T00:24:55.437Z,73.81
2023-01-01T00:25:28.848Z,73.45
2023-01-01T00:26:09.195Z,73.01
2023-01-01T00:26:42.647Z,73.50
2023-01-01T00:27:16.002Z,73.54
2023-01-01T00:27:49.616Z,73.28
2023-01-01T00:28:23.100Z,73.35
2023-01-01T00:28:56.561Z,73.43
2023-01-01T00:29:30.030Z,73.41
2023-01-01T00:30:04.506Z,73.59
2023-01-01T00:30:40.043Z,73.56
2023-01-01T00:31:20.098Z,73.35
2023-01-01T00:31:53.629Z,73.59
2023-01-01T00:32:27.233Z,73.96
2023-01-01T00:33:00.599Z,74.01
2023-01-01T00:33:34.130Z,74.22
2023-01-01T00:34:10.027Z,74.24
2023-01-01T00:34:43.464Z,74.28
2023-01-01T00:35:16.806Z,74.23
2023-01-01T00:35:50.203Z,74.36
2023-01-01T00:36:26.040Z,74.44
2023-01-01T00:36:59.482Z,74.53
2023-01-01T00:37:32.899Z,74.63
2023-01-01T00:38:07.318Z,74.67
2023-01-01T00:38:41.871Z,75.07
2023-01-01T00:39:15.450Z,75.03
2023-01-01T00:39:48.864Z,75.11
2023-01-01T00:40:22.873Z,75.15
2023-01-01T00:40:56.274Z,75.19
2023-01-01T00:41:29.653Z,75.32
2023-01-01T00:42:03.233Z,75.44
2023-01-01T00:42:40.383Z,75.34
2023-01-01T00:43:13.734Z,75.20
2023-01-01T00:43:47.098Z,75.06
2023-01-01T00:44:20.504Z,74.88
2023-01-01T00:44:53.917Z,74.91
2023-01-01T00:45:27.371Z,74.69
2023-01-01T00:46:00.799Z,74.69
2023-01-01T00:46:34.386Z,74.58
2023-01-01T00:47:07.878Z,74.68
2023-01-01T00:47:41.243Z,74.67
2023-01-01T00:48:14.655Z,74.72
2023-01-01T00:48:48.159Z,74.79
2023-01-01T00:49:21.507Z,75.05
2023-01-01T00:49:54.921Z,75.11
2023-01-01T00:50:28.423Z,74.77
2023-01-01T00:51:02.337Z,74.71
2023-01-01T00:51:37.269Z,74.53
2023-01-01T00:52:10.882Z,74.50
2023-01-01T00:52:44.338Z,74.63
2023-01-01T00:53:18.093Z,74.70
2023-01-01T00:53:51.480Z,74.85
2023-01-01T00:54:24.907Z,74.95
2023-01-01T00:54:58.290Z,75.05
2023-01-01T00:55:31.590Z,75.08
2023-01-01T00:56:05.992Z,75.18
2023-01-01T00:56:39.547Z,75.24
2023-01-01T00:57:13.082Z,75.13
2023-01-01T00:57:46.576Z,75.07
2023-01-01T00:58:20.626Z,74.98
2023-01-01T00:59:00.874Z,75.03
2023-01-01T00:59:35.586Z,75.04
2023-01-01T01:00:10.288Z,75.11
2023-01-01T01:00:44.283Z,75.27
2023-01-01T01:01:18.054Z,75.52
2023-01-01T01:01:51.808Z,75.65
2023-01-01T01:02:25.408Z,75.57
2023-01-01T01:03:00.655Z,75.57
2023-01-01T01:03:36.561Z,75.38
2023-01-01T01:04:11.350Z,75.24
2023-01-01T01:04:44.777Z,75.07
2023-01-01T01:05:19.998Z,74.85
2023-01-01T01:05:54.262Z,74.80
2023-01-01T01:06:27.803Z,74.40
2023-01-01T01:07:01.354Z,74.50
2023-01-01T01:07:40.032Z,74.16
2023-01-01T01:08:13.738Z,74.38
2023-01-01T01:08:48.255Z,74.51
2023-01-01T01:09:21.662Z,74.75
2023-01-01T01:09:55.105Z,74.90
2023-01-01T01:10:28.554Z,74.95
2023-01-01T01:11:19.053Z,75.01
2023-01-01T01:11:52.491Z,75.06
2023-01-01T01:12:51.730Z,75.25
2023-01-01T01:13:27.212Z,75.22
2023-01-01T01:14:00.761Z,75.29
2023-01-01T01:14:34.232Z,75.25
2023-01-01T01:15:09.269Z,75.33
2023-01-01T01:15:42.846Z,75.23
2023-01-01T01:16:22.786Z,75.24
2023-01-01T01:16:56.802Z,75.29
2023-01-01T01:17:30.184Z,75.29
2023-01-01T01:18:04.113Z,75.53
2023-01-01T01:18:37.776Z,75.43
2023-01-01T01:19:15.802Z,75.40
2023-01-01T01:19:49.199Z,75.38
2023-01-01T01:20:22.679Z,75.30
2023-01-01T01:20:56.224Z,75.48
2023-01-01T01:21:32.311Z,75.43
2023-01-01T01:22:06.740Z,75.40
2023-01-01T01:22:41.086Z,75.44
2023-01-01T01:23:14.533Z,75.50
2023-01-01T01:23:48.878Z,75.54
2023-01-01T01:24:22.591Z,75.50
2023-01-01T01:24:56.962Z,75.54
2023-01-01T01:25:31.195Z,75.40
2023-01-01T01:26:16.687Z,75.50
2023-01-01T01:26:50.292Z,75.51
2023-01-01T01:27:24.304Z,75.33
2023-01-01T01:27:57.886Z,75.36
2023-01-01T01:28:31.268Z,75.25
2023-01-01T01:29:06.122Z,75.23
2023-01-01T01:29:39.716Z,75.19
2023-01-01T01:30:13.311Z,75.19
2023-01-01T01:30:46.920Z,75.09
2023-01-01T01:31:22.784Z,75.23
2023-01-01T01:31:56.322Z,75.51
2023-01-01T01:32:29.720Z,75.53
2023-01-01T01:33:03.263Z,75.63
2023-01-01T01:33:37.132Z,75.82
2023-01-01T01:34:15.930Z,76.05
2023-01-01T01:34:49.950Z,76.24
2023-01-01T01:35:23.470Z,76.15
2023-01-01T01:35:56.852Z,76.39
2023-01-01T01:36:30.396Z,76.42
2023-01-01T01:37:05.253Z,76.47
2023-01-01T01:37:38.903Z,76.55
2023-01-01T01:38:12.319Z,76.49
2023-01-01T01:38:46.274Z,76.52
2023-01-01T01:39:20.234Z,76.54
2023-01-01T01:39:54.378Z,76.61
2023-01-01T01:40:27.939Z,76.65
2023-01-01T01:41:01.615Z,76.64
2023-01-01T01:41:35.574Z,76.58
2023-01-01T01:42:17.967Z,76.65
2023-01-01T01:42:52.915Z,76.57
2023-01-01T01:43:49.848Z,76.64
2023-01-01T01:44:45.164Z,76.62
2023-01-01T01:45:19.760Z,76.54
2023-01-01T01:46:12.166Z,76.67
2023-01-01T01:46:45.985Z,76.84
2023-01-01T01:47:56.083Z,76.90
2023-01-01T01:48:32.189Z,77.14
2023-01-01T01:49:31.229Z,77.02
2023-01-01T01:50:14.934Z,77.12
2023-01-01T01:50:52.648Z,77.09
2023-01-01T01:51:37.168Z,76.96
2023-01-01T01:52:11.133Z,76.99
2023-01-01T01:53:15.979Z,77.08
2023-01-01T01:53:54.822Z,77.22
2023-01-01T01:54:29.629Z,77.27
2023-01-01T01:55:06.497Z,77.25
2023-01-01T01:55:46.395Z,77.08
2023-01-01T01:56:47.081Z,77.23
2023-01-01T01:57:21.814Z,77.11
2023-01-01T01:57:55.583Z,77.07
2023-01-01T01:58:31.086Z,76.98
2023-01-01T01:59:04.619Z,76.83
2023-01-01T01:59:47.147Z,76.79
2023-01-01T02:00:21.489Z,76.69
2023-01-01T02:00:55.656Z,76.77
2023-01-01T02:01:29.669Z,76.75
2023-01-01T02:02:03.878Z,76.73
2023-01-01T02:02:55.948Z,76.61
2023-01-01T02:03:37.583Z,76.70
2023-01-01T02:04:12.440Z,76.71
2023-01-01T02:04:45.953Z,76.67
2023-01-01T02:05:21.050Z,76.65
2023-01-01T02:05:55.068Z,76.58
2023-01-01T02:06:30.637Z,76.62
2023-01-01T02:07:04.603Z,76.63
2023-01-01T02:07:38.338Z,76.69
2023-01-01T02:08:14.868Z,76.79
2023-01-01T02:08:50.419Z,76.76
2023-01-01T02:09:23.984Z,76.93
2023-01-01T02:09:58.477Z,76.93
2023-01-01T02:10:33.228Z,76.93
2023-01-01T02:11:06.887Z,77.12
2023-01-01T02:11:45.213Z,77.04
2023-01-01T02:12:18.614Z,77.06
2023-01-01T02:12:52.082Z,77.05
2023-01-01T02:13:25.574Z,77.07
2023-01-01T02:14:00.765Z,77.28
2023-01-01T02:14:34.253Z,77.26
2023-01-01T02:15:08.837Z,77.31
2023-01-01T02:16:05.663Z,77.40
2023-01-01T02:16:47.825Z,77.50
2023-01-01T02:17:59.583Z,77.49
2023-01-01T02:19:15.146Z,77.49
2023-01-01T02:20:03.925Z,77.24
2023-01-01T02:20:58.475Z,77.44
2023-01-01T02:21:41.629Z,77.48
2023-01-01T02:22:15.761Z,77.62
2023-01-01T02:23:15.520Z,77.74
2023-01-01T02:24:26.137Z,77.60
2023-01-01T02:25:24.358Z,77.80
2023-01-01T02:26:18.638Z,77.99
2023-01-01T02:27:10.438Z,78.06
2023-01-01T02:28:36.629Z,78.27
2023-01-01T02:29:27.958Z,78.32
2023-01-01T02:30:06.159Z,78.46
2023-01-01T02:30:43.217Z,78.60
2023-01-01T02:31:28.202Z,78.92
2023-01-01T02:32:14.723Z,79.24
2023-01-01T02:32:57.276Z,79.40
2023-01-01T02:33:33.569Z,79.23
2023-01-01T02:34:15.206Z,79.40
2023-01-01T02:34:55.348Z,79.62
2023-01-01T02:35:34.894Z,79.82
2023-01-01T02:36:11.361Z,79.82
2023-01-01T02:36:51.098Z,79.67
2023-01-01T02:37:28.710Z,79.95
2023-01-01T02:38:17.517Z,79.94
2023-01-01T02:38:55.972Z,80.05
2023-01-01T02:39:34.991Z,79.98
2023-01-01T02:40:09.006Z,79.97
2023-01-01T02:40:47.766Z,80.08
2023-01-01T02:41:27.532Z,80.01
2023-01-01T02:42:03.631Z,80.01
2023-01-01T02:42:37.101Z,79.96
2023-01-01T02:43:10.572Z,80.02
2023-01-01T02:43:45.512Z,80.11
2023-01-01T02:44:22.808Z,80.03
2023-01-01T02:44:58.638Z,80.03
2023-01-01T02:45:32.830Z,80.15
2023-01-01T02:46:10.866Z,80.15
2023-01-01T02:46:46.029Z,80.13
2023-01-01T02:47:20.980Z,80.16
2023-01-01T02:47:54.754Z,80.09
2023-01-01T02:48:45.277Z,80.17
2023-01-01T02:50:46.680Z,79.90
2023-01-01T02:51:38.003Z,79.98
2023-01-01T02:52:51.321Z,79.96
2023-01-01T02:53:32.872Z,79.98
2023-01-01T02:54:18.628Z,79.98
2023-01-01T02:55:34.190Z,79.94
2023-01-01T02:56:23.713Z,79.93
2023-01-01T02:57:31.149Z,79.88
2023-01-01T02:58:42.669Z,79.85
2023-01-01T02:59:47.967Z,79.86
2023-01-01T03:00:29.875Z,79.76
2023-01-01T03:01:28.556Z,79.76
2023-01-01T03:02:17.458Z,79.82
2023-01-01T03:03:09.261Z,79.74
2023-01-01T03:03:56.837Z,79.91
2023-01-01T03:04:50.456Z,79.79
2023-01-01T03:05:28.773Z,79.92
2023-01-01T03:06:23.369Z,80.10
2023-01-01T03:07:16.218Z,80.19
2023-01-01T03:08:07.631Z,80.27
2023-01-01T03:08:57.294Z,80.16
2023-01-01T03:09:38.157Z,80.32
2023-01-01T03:10:20.853Z,80.57
2023-01-01T03:11:07.922Z,80.25
2023-01-01T03:11:47.358Z,80.43
2023-01-01T03:12:40.744Z,80.49
2023-01-01T03:13:28.056Z,80.63
2023-01-01T03:14:19.023Z,80.53
2023-01-01T03:15:07.344Z,80.76
2023-01-01T03:15:49.260Z,80.68
2023-01-01T03:16:31.828Z,80.83
2023-01-01T03:17:28.274Z,80.73
2023-01-01T03:18:11.142Z,80.77
2023-01-01T03:19:12.999Z,80.85
2023-01-01T03:19:49.469Z,80.88
2023-01-01T03:20:28.818Z,80.85
2023-01-01T03:21:05.968Z,80.89
2023-01-01T03:21:51.479Z,80.90
2023-01-01T03:23:16.228Z,81.04
2023-01-01T03:23:54.944Z,81.02
2023-01-01T03:24:44.291Z,81.03
2023-01-01T03:25:27.327Z,80.99
2023-01-01T03:26:05.439Z,81.13
2023-01-01T03:26:40.991Z,81.12
2023-01-01T03:27:20.767Z,81.09
2023-01-01T03:27:59.603Z,81.37
2023-01-01T03:28:40.247Z,81.29
2023-01-01T03:29:13.983Z,81.26
2023-01-01T03:29:53.114Z,81.30
2023-01-01T03:30:28.946Z,81.25
2023-01-01T03:31:03.857Z,81.32
2023-01-01T03:31:41.140Z,81.37
2023-01-01T03:32:21.585Z,81.44
2023-01-01T03:33:04.029Z,81.41
2023-01-01T03:33:45.138Z,81.31
2023-01-01T03:34:36.431Z,81.22
2023-01-01T03:35:10.931Z,81.38
2023-01-01T03:35:51.747Z,81.26
2023-01-01T03:36:31.718Z,81.23
2023-01-01T03:37:11.215Z,81.29
2023-01-01T03:37:50.242Z,81.25
2023-01-01T03:38:46.180Z,81.27
2023-01-01T03:39:25.343Z,81.26
2023-01-01T03:39:59.929Z,81.24
2023-01-01T03:40:37.810Z,81.29
2023-01-01T03:41:16.083Z,81.36
2023-01-01T03:41:58.699Z,81.30
2023-01-01T03:42:38.505Z,81.32
2023-01-01T03:43:21.703Z,81.45
2023-01-01T03:44:44.557Z,81.27
2023-01-01T03:45:23.316Z,81.37
2023-01-01T03:45:59.598Z,81.40
2023-01-01T03:46:37.918Z,81.32
2023-01-01T03:47:11.714Z,81.39
2023-01-01T03:47:46.470Z,81.35
2023-01-01T03:48:19.902Z,81.37
2023-01-01T03:49:03.196Z,81.32
2023-01-01T03:49:37.477Z,81.32
2023-01-01T03:50:11.555Z,81.47
2023-01-01T03:51:11.949Z,81.40
2023-01-01T03:52:03.296Z,81.23
2023-01-01T03:52:55.623Z,81.37
2023-01-01T03:53:44.704Z,81.43
2023-01-01T03:54:34.988Z,81.37
2023-01-01T03:55:14.578Z,81.48
2023-01-01T03:56:02.095Z,81.41
2023-01-01T03:56:45.797Z,81.48
2023-01-01T03:57:43.198Z,81.47
2023-01-01T03:58:27.808Z,81.45
2023-01-01T03:59:06.719Z,81.57
2023-01-01T03:59:52.829Z,81.55
2023-01-01T04:00:34.208Z,81.53
2023-01-01T04:01:25.514Z,81.53
2023-01-01T04:02:02.841Z,81.69
2023-01-01T04:02:50.834Z,81.73
2023-01-01T04:03:28.347Z,81.75
2023-01-01T04:04:05.570Z,81.91
2023-01-01T04:04:41.173Z,81.94
2023-01-01T04:05:15.721Z,81.92
2023-01-01T04:05:49.071Z,81.59
2023-01-01T04:06:22.644Z,81.60
2023-01-01T04:07:14.298Z,81.56
2023-01-01T04:08:22.363Z,81.57
2023-01-01T04:08:59.607Z,81.68
2023-01-01T04:09:37.414Z,81.60
2023-01-01T04:10:20.126Z,81.66
2023-01-01T04:10:58.080Z,81.70
2023-01-01T04:11:52.411Z,81.57
2023-01-01T04:12:26.780Z,81.64
2023-01-01T04:13:04.560Z,81.73
2023-01-01T04:13:48.308Z,81.49
2023-01-01T04:14:33.457Z,81.52
2023-01-01T04:15:09.241Z,81.59
2023-01-01T04:15:42.812Z,81.65
2023-01-01T04:16:16.298Z,81.52
2023-01-01T04:16:49.892Z,81.42
2023-01-01T04:17:23.453Z,81.48
2023-01-01T04:17:57.187Z,81.45
2023-01-01T04:18:30.590Z,81.28
2023-01-01T04:19:07.199Z,81.36
2023-01-01T04:19:40.565Z,81.27
2023-01-01T04:20:14.982Z,81.18
2023-01-01T04:20:48.985Z,81.25
2023-01-01T04:21:22.317Z,81.25
2023-01-01T04:21:56.041Z,81.33
2023-01-01T04:22:29.465Z,81.14
2023-01-01T04:23:03.217Z,81.15
2023-01-01T04:23:36.586Z,81.19
2023-01-01T04:24:10.393Z,81.08
2023-01-01T04:24:45.642Z,81.13
2023-01-01T04:25:19.167Z,81.10
2023-01-01T04:25:52.369Z,81.17
2023-01-01T04:26:25.805Z,81.28
2023-01-01T04:26:59.277Z,81.15
2023-01-01T04:27:33.890Z,81.08
2023-01-01T04:28:07.250Z,80.95
2023-01-01T04:28:42.189Z,81.10
2023-01-01T04:29:15.703Z,80.99
2023-01-01T04:29:49.078Z,80.97
2023-01-01T04:30:22.732Z,80.91
2023-01-01T04:31:28.573Z,80.63
2023-01-01T04:32:02.039Z,80.60
2023-01-01T04:32:35.564Z,80.74
2023-01-01T04:33:09.620Z,80.55
2023-01-01T04:33:43.084Z,80.60
2023-01-01T04:34:16.944Z,80.58
2023-01-01T04:34:50.529Z,80.38
2023-01-01T04:35:24.007Z,80.19
2023-01-01T04:35:57.430Z,80.24
2023-01-01T04:36:30.873Z,80.31
2023-01-01T04:37:08.327Z,80.39
2023-01-01T04:37:46.480Z,80.31
2023-01-01T04:38:20.101Z,80.29
2023-01-01T04:38:55.445Z,80.20
2023-01-01T04:39:29.291Z,80.17
2023-01-01T04:40:03.653Z,80.03
2023-01-01T04:40:37.257Z,79.96
2023-01-01T04:41:11.954Z,79.93
2023-01-01T04:41:47.312Z,80.07
2023-01-01T04:42:20.854Z,79.93
2023-01-01T04:42:54.687Z,79.99
2023-01-01T04:43:28.622Z,79.77
2023-01-01T04:44:02.337Z,79.75
2023-01-01T04:44:36.007Z,79.58
2023-01-01T04:45:12.487Z,79.71
2023-01-01T04:45:55.934Z,79.69
2023-01-01T04:46:29.607Z,79.56
2023-01-01T04:47:03.440Z,79.47
2023-01-01T04:47:37.013Z,79.38
2023-01-01T04:48:10.535Z,79.49
2023-01-01T04:48:47.124Z,79.31
2023-01-01T04:49:21.071Z,79.21
2023-01-01T04:49:54.806Z,79.24
2023-01-01T04:50:28.291Z,79.18
2023-01-01T04:51:04.802Z,79.23
2023-01-01T04:51:38.302Z,79.16
2023-01-01T04:52:11.798Z,78.91
2023-01-01T04:52:47.312Z,79.01
2023-01-01T04:53:20.735Z,79.02
2023-01-01T04:53:54.203Z,79.18
2023-01-01T04:54:27.490Z,79.19
2023-01-01T04:55:01.003Z,78.98
2023-01-01T04:55:34.457Z,79.15
2023-01-01T04:56:19.413Z,79.10
2023-01-01T04:56:52.932Z,79.11
2023-01-01T04:57:26.244Z,79.21
2023-01-01T04:57:59.674Z,79.20
2023-01-01T04:58:34.348Z,79.16
2023-01-01T04:59:08.407Z,79.14
2023-01-01T04:59:42.321Z,79.25
2023-01-01T05:00:16.233Z,79.20
2023-01-01T05:00:51.044Z,79.23
2023-01-01T05:01:27.379Z,79.31
2023-01-01T05:02:01.171Z,79.12
2023-01-01T05:02:34.954Z,79.25
2023-01-01T05:03:08.385Z,79.25
2023-01-01T05:03:41.865Z,79.27
2023-01-01T05:04:17.197Z,79.10
2023-01-01T05:04:50.531Z,79.05
2023-01-01T05:05:23.841Z,79.15
2023-01-01T05:06:11.881Z,79.16
2023-01-01T05:06:45.243Z,79.07
2023-01-01T05:07:18.651Z,79.03
2023-01-01T05:07:52.034Z,78.94
2023-01-01T05:08:25.331Z,79.04
2023-01-01T05:09:01.291Z,79.13
2023-01-01T05:09:34.661Z,79.03
2023-01-01T05:10:08.588Z,78.99
2023-01-01T05:10:43.050Z,78.80
2023-01-01T05:11:19.184Z,78.79
2023-01-01T05:11:54.912Z,78.65
2023-01-01T05:12:30.350Z,78.83
2023-01-01T05:13:07.469Z,78.71
2023-01-01T05:13:42.962Z,78.84
2023-01-01T05:14:16.413Z,78.90
2023-01-01T05:14:49.791Z,78.88
2023-01-01T05:15:23.192Z,78.89
2023-01-01T05:15:56.959Z,78.91
2023-01-01T05:16:33.887Z,78.77
2023-01-01T05:17:07.346Z,78.60
2023-01-01T05:17:40.793Z,78.71
2023-01-01T05:18:14.269Z,78.61
2023-01-01T05:18:48.740Z,78.55
2023-01-01T05:19:22.292Z,78.60
2023-01-01T05:19:55.687Z,78.52
2023-01-01T05:20:28.992Z,78.24
2023-01-01T05:21:04.403Z,78.39
2023-01-01T05:21:40.664Z,78.41
2023-01-01T05:22:14.037Z,78.47
2023-01-01T05:22:47.659Z,78.60
2023-01-01T05:23:21.595Z,78.54
2023-01-01T05:24:09.283Z,78.65
2023-01-01T05:24:43.890Z,78.68
2023-01-01T05:25:17.343Z,78.77
2023-01-01T05:25:50.800Z,78.83
2023-01-01T05:26:27.424Z,78.79
2023-01-01T05:27:00.879Z,78.84
2023-01-01T05:27:34.224Z,78.82
2023-01-01T05:28:07.586Z,78.94
2023-01-01T05:28:41.349Z,78.87
2023-01-01T05:29:16.950Z,79.02
2023-01-01T05:29:50.819Z,78.87
2023-01-01T05:30:25.663Z,78.85
2023-01-01T05:30:58.979Z,78.83
2023-01-01T05:31:34.994Z,79.04
2023-01-01T05:32:43.348Z,78.95
2023-01-01T05:33:16.748Z,79.06
2023-01-01T05:33:52.789Z,79.09
2023-01-01T05:34:27.626Z,78.96
2023-01-01T05:35:01.131Z,78.88
2023-01-01T05:35:34.664Z,78.94
2023-01-01T05:36:09.471Z,78.88
2023-01-01T05:36:44.372Z,78.87
2023-01-01T05:37:17.720Z,78.90
2023-01-01T05:37:52.149Z,79.16
2023-01-01T05:38:25.569Z,79.17
2023-01-01T05:38:59.353Z,79.33
2023-01-01T05:39:35.330Z,79.17
2023-01-01T05:40:09.498Z,79.27
2023-01-01T05:40:43.169Z,79.08
2023-01-01T05:41:18.103Z,78.37
2023-01-01T05:41:52.103Z,78.02
2023-01-01T05:42:25.453Z,78.29
2023-01-01T05:42:59.116Z,78.47
2023-01-01T05:43:32.449Z,78.53
2023-01-01T05:44:09.125Z,78.66
2023-01-01T05:44:42.675Z,78.70
2023-01-01T05:45:16.043Z,78.69
2023-01-01T05:45:49.444Z,78.58
2023-01-01T05:46:24.877Z,78.73
2023-01-01T05:46:58.570Z,78.60
2023-01-01T05:47:32.019Z,78.56
2023-01-01T05:48:07.351Z,78.54
2023-01-01T05:48:40.833Z,78.47
2023-01-01T05:49:14.359Z,78.57
2023-01-01T05:49:47.729Z,78.54
2023-01-01T05:50:21.130Z,78.49
2023-01-01T05:50:54.880Z,78.44
2023-01-01T05:51:30.266Z,78.45
2023-01-01T05:52:03.934Z,78.39
2023-01-01T05:52:37.274Z,78.43
2023-01-01T05:53:13.410Z,78.50
2023-01-01T05:53:47.415Z,78.32
2023-01-01T05:54:20.745Z,78.33
2023-01-01T05:54:54.016Z,78.38
2023-01-01T05:55:27.468Z,78.28
2023-01-01T05:56:01.609Z,78.35
2023-01-01T05:56:35.007Z,78.27
2023-01-01T05:57:08.428Z,78.27
2023-01-01T05:57:41.878Z,78.40
2023-01-01T05:58:15.159Z,78.43
2023-01-01T05:58:49.047Z,78.31
2023-01-01T05:59:22.524Z,78.30
2023-01-01T05:59:55.916Z,78.30
2023-01-01T06:00:29.241Z,78.31
2023-01-01T06:01:26.859Z,78.21
2023-01-01T06:02:02.122Z,78.43
2023-01-01T06:02:35.598Z,78.38
2023-01-01T06:03:09.214Z,78.34
2023-01-01T06:03:43.800Z,78.41
2023-01-01T06:04:17.343Z,78.55
2023-01-01T06:04:50.891Z,78.46
2023-01-01T06:05:24.296Z,78.32
2023-01-01T06:05:57.619Z,78.35
2023-01-01T06:06:33.926Z,78.25
2023-01-01T06:07:07.334Z,78.29
2023-01-01T06:07:46.430Z,78.38
2023-01-01T06:08:21.565Z,78.43
2023-01-01T06:08:57.370Z,78.27
2023-01-01T06:09:30.690Z,78.13
2023-01-01T06:10:05.816Z,78.00
2023-01-01T06:10:39.371Z,77.93
2023-01-01T06:11:13.042Z,77.84
2023-01-01T06:11:46.373Z,77.80
2023-01-01T06:12:19.714Z,77.69
2023-01-01T06:12:58.839Z,77.61
2023-01-01T06:13:33.129Z,77.63
2023-01-01T06:14:06.629Z,77.63
2023-01-01T06:14:40.340Z,77.48
2023-01-01T06:15:13.749Z,77.31
2023-01-01T06:15:54.369Z,77.44
2023-01-01T06:16:29.940Z,77.36
2023-01-01T06:17:03.408Z,77.49
2023-01-01T06:17:36.799Z,77.34
2023-01-01T06:18:10.207Z,77.32
2023-01-01T06:18:44.240Z,77.24
2023-01-01T06:19:17.576Z,77.36
2023-01-01T06:19:51.027Z,77.30
2023-01-01T06:20:24.487Z,77.29
2023-01-01T06:21:14.591Z,77.42
2023-01-01T06:21:48.020Z,77.38
2023-01-01T06:22:22.446Z,77.42
2023-01-01T06:22:55.843Z,77.58
2023-01-01T06:23:29.188Z,77.42
2023-01-01T06:24:02.554Z,77.48
2023-01-01T06:24:39.065Z,77.40
2023-01-01T06:25:13.300Z,77.25
2023-01-01T06:25:46.654Z,77.32
2023-01-01T06:26:24.005Z,77.25
2023-01-01T06:26:57.489Z,77.29
2023-01-01T06:27:30.919Z,77.18
2023-01-01T06:28:04.396Z,77.12
2023-01-01T06:28:38.208Z,77.11
2023-01-01T06:29:11.568Z,77.11
2023-01-01T06:29:44.910Z,77.10
2023-01-01T06:30:18.354Z,77.02
2023-01-01T06:30:51.710Z,76.98
2023-01-01T06:31:25.633Z,76.76
2023-01-01T06:31:59.026Z,76.72
2023-01-01T06:32:32.656Z,76.84
2023-01-01T06:33:06.272Z,76.80
2023-01-01T06:33:40.548Z,76.64
2023-01-01T06:34:14.042Z,76.47
2023-01-01T06:34:47.909Z,76.37
2023-01-01T06:35:21.288Z,76.33
2023-01-01T06:35:54.750Z,76.19
2023-01-01T06:36:28.139Z,76.23
2023-01-01T06:37:06.662Z,76.20
2023-01-01T06:37:40.597Z,76.04
2023-01-01T06:38:13.940Z,75.88
2023-01-01T06:38:49.941Z,75.63
2023-01-01T06:39:23.352Z,75.51
2023-01-01T06:39:56.803Z,75.67
2023-01-01T06:40:30.200Z,75.71
2023-01-01T06:41:06.361Z,75.42
2023-01-01T06:41:39.748Z,75.12
2023-01-01T06:42:13.177Z,75.41
2023-01-01T06:42:46.551Z,75.39
2023-01-01T06:43:19.980Z,75.39
2023-01-01T06:43:56.376Z,75.35
2023-01-01T06:44:29.674Z,75.29
2023-01-01T06:45:03.069Z,75.40
2023-01-01T06:45:37.534Z,75.28
2023-01-01T06:46:25.286Z,75.11
2023-01-01T06:46:58.848Z,75.17
2023-01-01T06:47:35.808Z,75.16
2023-01-01T06:48:09.170Z,75.09
2023-01-01T06:48:42.841Z,74.90
2023-01-01T06:49:16.204Z,74.81
2023-01-01T06:49:49.550Z,74.90
2023-01-01T06:50:22.885Z,74.70
2023-01-01T06:50:56.551Z,74.71
2023-01-01T06:51:32.543Z,74.60
2023-01-01T06:52:06.068Z,74.56
2023-01-01T06:52:39.450Z,74.26
2023-01-01T06:53:12.843Z,74.01
2023-01-01T06:53:47.259Z,74.18
2023-01-01T06:54:20.687Z,74.38
2023-01-01T06:54:55.154Z,74.25
2023-01-01T06:55:28.526Z,74.25
2023-01-01T06:56:02.403Z,74.19
2023-01-01T06:56:36.407Z,74.17
2023-01-01T06:57:09.961Z,74.29
2023-01-01T06:57:43.410Z,74.23
2023-01-01T06:58:16.810Z,74.14
2023-01-01T06:58:50.293Z,74.26
2023-01-01T06:59:23.742Z,74.09
2023-01-01T06:59:57.291Z,74.07
2023-01-01T07:00:30.617Z,74.07
2023-01-01T07:01:10.899Z,74.12
2023-01-01T07:01:45.089Z,73.89
2023-01-01T07:02:18.829Z,73.92
2023-01-01T07:02:52.424Z,73.95
2023-01-01T07:03:26.037Z,73.87
2023-01-01T07:04:04.452Z,73.95
2023-01-01T07:04:38.348Z,73.88
2023-01-01T07:05:11.727Z,73.98
2023-01-01T07:05:45.127Z,73.81
2023-01-01T07:06:18.618Z,73.87
2023-01-01T07:06:51.961Z,73.86
2023-01-01T07:07:27.841Z,73.55
2023-01-01T07:08:03.267Z,73.29
2023-01-01T07:08:37.654Z,73.23
2023-01-01T07:09:11.924Z,73.22
2023-01-01T07:09:45.272Z,73.10
2023-01-01T07:10:18.637Z,73.14
2023-01-01T07:10:51.886Z,73.04
2023-01-01T07:11:26.272Z,72.99
2023-01-01T07:11:59.739Z,72.98
2023-01-01T07:12:33.298Z,72.85
2023-01-01T07:13:06.855Z,72.91
2023-01-01T07:13:40.327Z,73.00
2023-01-01T07:14:13.926Z,73.01
2023-01-01T07:14:47.992Z,72.89
2023-01-01T07:15:21.446Z,73.07
2023-01-01T07:15:55.556Z,73.00
2023-01-01T07:16:29.013Z,72.80
2023-01-01T07:17:02.475Z,72.51
2023-01-01T07:17:35.783Z,72.50
2023-01-01T07:18:09.536Z,72.53
2023-01-01T07:18:43.050Z,72.71
2023-01-01T07:19:16.400Z,72.68
2023-01-01T07:19:49.724Z,72.50
2023-01-01T07:20:23.059Z,72.65
2023-01-01T07:20:59.140Z,72.42
2023-01-01T07:21:32.426Z,72.56
2023-01-01T07:22:05.880Z,72.57
2023-01-01T07:22:40.704Z,72.34
2023-01-01T07:23:14.053Z,72.30
2023-01-01T07:23:50.395Z,72.11
2023-01-01T07:24:23.861Z,72.34
2023-01-01T07:24:57.238Z,72.35
2023-01-01T07:25:30.603Z,72.56
2023-01-01T07:26:03.968Z,72.44
2023-01-01T07:26:37.378Z,72.47
2023-01-01T07:27:10.710Z,72.45
2023-01-01T07:27:44.124Z,72.33
2023-01-01T07:28:17.536Z,72.36
2023-01-01T07:28:50.912Z,72.38
2023-01-01T07:29:24.226Z,72.52
2023-01-01T07:29:57.535Z,72.69
2023-01-01T07:30:30.983Z,72.72
2023-01-01T07:31:04.899Z,72.88
2023-01-01T07:31:40.723Z,72.83
2023-01-01T07:32:14.414Z,72.85
2023-01-01T07:32:47.761Z,72.85
2023-01-01T07:33:23.429Z,72.71
2023-01-01T07:33:56.768Z,72.75
2023-01-01T07:34:30.178Z,72.58
2023-01-01T07:35:03.587Z,72.53
2023-01-01T07:35:36.954Z,72.49
2023-01-01T07:36:10.680Z,72.57
2023-01-01T07:36:44.059Z,72.61
2023-01-01T07:37:17.461Z,72.66
2023-01-01T07:37:50.858Z,72.67
2023-01-01T07:38:24.190Z,72.45
2023-01-01T07:38:57.509Z,72.51
2023-01-01T07:39:30.892Z,72.19
2023-01-01T07:40:04.551Z,72.16
2023-01-01T07:40:38.018Z,71.76
2023-01-01T07:41:11.498Z,71.78
2023-01-01T07:41:45.534Z,71.69
2023-01-01T07:42:19.929Z,71.70
2023-01-01T07:42:53.267Z,71.58
2023-01-01T07:43:26.595Z,71.17
2023-01-01T07:44:00.158Z,70.95
2023-01-01T07:44:33.490Z,70.91
2023-01-01T07:45:08.233Z,70.73
2023-01-01T07:45:41.764Z,70.82
2023-01-01T07:46:16.839Z,70.55
2023-01-01T07:46:50.297Z,70.63
2023-01-01T07:47:26.022Z,70.49
2023-01-01T07:48:00.835Z,70.51
2023-01-01T07:48:39.754Z,70.22
2023-01-01T07:49:13.779Z,69.06
2023-01-01T07:49:47.114Z,68.77
2023-01-01T07:50:21.505Z,69.17
2023-01-01T07:50:54.793Z,69.48
2023-01-01T07:51:28.193Z,69.50
2023-01-01T07:52:01.519Z,69.60
2023-01-01T07:52:34.876Z,69.60
2023-01-01T07:53:08.588Z,69.18
2023-01-01T07:53:42.070Z,69.19
2023-01-01T07:54:15.462Z,69.23
2023-01-01T07:54:48.935Z,68.81
2023-01-01T07:55:22.682Z,69.30
2023-01-01T07:55:56.005Z,69.08
2023-01-01T07:56:29.424Z,68.94
2023-01-01T07:57:02.787Z,68.91
2023-01-01T07:57:36.192Z,68.67
2023-01-01T07:58:11.396Z,68.48
2023-01-01T07:58:44.696Z,68.36
2023-01-01T07:59:20.459Z,67.96